sensor_id;sensor_type;location;lat;lon;timestamp;P1;durP1;ratioP1;P2;durP2;ratioP2
76051;SDS011;64751;48.708;9.710;2023-05-14T14:32:43;0.10;;;0.10;;
76051;SDS011;64751;48.708;9.710;2023-05-14T14:35:11;0.10;;;0.10;;
76051;SDS011;64751;48.708;9.710;2023-05-14T14:37:39;0.00;;;0.00;;
76051;SDS011;64751;48.708;9.710;2023-05-14T14:40:10;0.10;;;0.10;;
76051;SDS011;64751;48.708;9.710;2023-05-14T14:42:38;0.30;;;0.10;;
76051;SDS011;64751;48.708;9.710;2023-05-14T14:45:06;0.10;;;0.10;;
76051;SDS011;64751;48.708;9.710;2023-05-14T14:47:34;0.10;;;0.10;;
76051;SDS011;64751;48.708;9.710;2023-05-14T14:50:04;0.10;;;0.10;;
76051;SDS011;64751;48.708;9.710;2023-05-14T14:52:32;0.10;;;0.10;;
76051;SDS011;64751;48.708;9.710;2023-05-14T14:55:00;0.10;;;0.10;;
76051;SDS011;64751;48.708;9.710;2023-05-14T14:57:28;0.00;;;0.00;;
76051;SDS011;64751;48.708;9.710;2023-05-14T14:59:55;0.08;;;0.08;;
76051;SDS011;64751;48.708;9.710;2023-05-14T15:02:23;0.10;;;0.10;;
76051;SDS011;64751;48.708;9.710;2023-05-14T15:04:51;0.00;;;0.00;;
76051;SDS011;64751;48.708;9.710;2023-05-14T15:07:20;0.10;;;0.10;;
76051;SDS011;64751;48.708;9.710;2023-05-14T15:09:48;0.10;;;0.10;;
76051;SDS011;64751;48.708;9.710;2023-05-14T15:12:16;0.22;;;0.22;;
76051;SDS011;64751;48.708;9.710;2023-05-14T15:14:44;0.00;;;0.00;;
76051;SDS011;64751;48.708;9.710;2023-05-14T15:17:11;0.00;;;0.00;;
76051;SDS011;64751;48.708;9.710;2023-05-14T15:19:39;0.10;;;0.10;;
76051;SDS011;64751;48.708;9.710;2023-05-14T15:22:06;0.10;;;0.10;;
76051;SDS011;64751;48.708;9.710;2023-05-14T15:24:35;0.00;;;0.00;;
76051;SDS011;64751;48.708;9.710;2023-05-14T15:27:03;0.00;;;0.00;;
76051;SDS011;64751;48.708;9.710;2023-05-14T15:29:31;0.10;;;0.10;;
76051;SDS011;64751;48.708;9.710;2023-05-14T15:31:58;0.10;;;0.10;;
76051;SDS011;64751;48.708;9.710;2023-05-14T15:34:26;0.10;;;0.10;;
76051;SDS011;64751;48.708;9.710;2023-05-14T15:36:53;0.00;;;0.00;;
76051;SDS011;64751;48.708;9.710;2023-05-14T15:39:21;0.20;;;0.20;;
76051;SDS011;64751;48.708;9.710;2023-05-14T15:41:50;0.00;;;0.00;;
76051;SDS011;64751;48.708;9.710;2023-05-14T15:44:17;0.10;;;0.10;;
76051;SDS011;64751;48.708;9.710;2023-05-14T15:46:45;0.10;;;0.10;;
76051;SDS011;64751;48.708;9.710;2023-05-14T15:49:12;0.10;;;0.10;;
76051;SDS011;64751;48.708;9.710;2023-05-14T15:51:40;0.10;;;0.10;;
76051;SDS011;64751;48.708;9.710;2023-05-14T15:54:08;0.10;;;0.10;;
76051;SDS011;64751;48.708;9.710;2023-05-14T15:56:35;0.15;;;0.10;;
76051;SDS011;64751;48.708;9.710;2023-05-14T15:59:04;0.10;;;0.10;;
76051;SDS011;64751;48.708;9.710;2023-05-14T16:01:32;0.22;;;0.10;;
76051;SDS011;64751;48.708;9.710;2023-05-14T16:03:59;0.10;;;0.10;;
76051;SDS011;64751;48.708;9.710;2023-05-14T16:06:27;0.20;;;0.20;;
76051;SDS011;64751;48.708;9.710;2023-05-14T16:08:54;0.10;;;0.10;;
76051;SDS011;64751;48.708;9.710;2023-05-14T16:11:22;0.05;;;0.05;;
76051;SDS011;64751;48.708;9.710;2023-05-14T16:13:49;0.10;;;0.10;;
76051;SDS011;64751;48.708;9.710;2023-05-14T16:16:18;0.00;;;0.00;;
76051;SDS011;64751;48.708;9.710;2023-05-14T16:18:48;0.10;;;0.05;;
76051;SDS011;64751;48.708;9.710;2023-05-14T16:21:18;0.10;;;0.10;;
76051;SDS011;64751;48.708;9.710;2023-05-14T16:23:45;0.35;;;0.13;;
76051;SDS011;64751;48.708;9.710;2023-05-14T16:26:13;0.00;;;0.00;;
76051;SDS011;64751;48.708;9.710;2023-05-14T16:28:41;0.00;;;0.00;;
76051;SDS011;64751;48.708;9.710;2023-05-14T16:31:08;0.05;;;0.05;;
76051;SDS011;64751;48.708;9.710;2023-05-14T16:33:37;0.03;;;0.03;;
76051;SDS011;64751;48.708;9.710;2023-05-14T16:36:05;0.00;;;0.00;;
76051;SDS011;64751;48.708;9.710;2023-05-14T16:38:32;0.00;;;0.00;;
76051;SDS011;64751;48.708;9.710;2023-05-14T16:41:00;0.03;;;0.03;;
76051;SDS011;64751;48.708;9.710;2023-05-14T16:43:27;0.10;;;0.10;;
76051;SDS011;64751;48.708;9.710;2023-05-14T16:45:55;0.10;;;0.10;;
76051;SDS011;64751;48.708;9.710;2023-05-14T16:48:23;0.10;;;0.10;;
76051;SDS011;64751;48.708;9.710;2023-05-14T16:50:53;0.00;;;0.00;;
76051;SDS011;64751;48.708;9.710;2023-05-14T16:53:21;0.10;;;0.10;;
76051;SDS011;64751;48.708;9.710;2023-05-14T16:55:48;0.00;;;0.00;;
76051;SDS011;64751;48.708;9.710;2023-05-14T16:58:16;0.20;;;0.20;;
76051;SDS011;64751;48.708;9.710;2023-05-14T17:00:43;0.15;;;0.15;;
76051;SDS011;64751;48.708;9.710;2023-05-14T17:03:11;0.00;;;0.00;;
76051;SDS011;64751;48.708;9.710;2023-05-14T17:05:38;0.08;;;0.08;;
76051;SDS011;64751;48.708;9.710;2023-05-14T17:08:07;0.20;;;0.20;;
76051;SDS011;64751;48.708;9.710;2023-05-14T17:10:35;0.00;;;0.00;;
76051;SDS011;64751;48.708;9.710;2023-05-14T17:13:03;0.10;;;0.10;;
76051;SDS011;64751;48.708;9.710;2023-05-14T17:15:30;0.10;;;0.10;;
76051;SDS011;64751;48.708;9.710;2023-05-14T17:17:58;0.10;;;0.10;;
76051;SDS011;64751;48.708;9.710;2023-05-14T17:20:26;0.10;;;0.10;;
76051;SDS011;64751;48.708;9.710;2023-05-14T17:22:53;0.00;;;0.00;;
76051;SDS011;64751;48.708;9.710;2023-05-14T17:25:22;0.10;;;0.10;;
76051;SDS011;64751;48.708;9.710;2023-05-14T17:27:51;0.10;;;0.10;;
76051;SDS011;64751;48.708;9.710;2023-05-14T17:30:18;0.05;;;0.05;;
76051;SDS011;64751;48.708;9.710;2023-05-14T17:32:46;0.00;;;0.00;;
76051;SDS011;64751;48.708;9.710;2023-05-14T17:35:14;0.10;;;0.10;;
76051;SDS011;64751;48.708;9.710;2023-05-14T17:37:41;0.10;;;0.10;;
76051;SDS011;64751;48.708;9.710;2023-05-14T17:40:09;0.03;;;0.03;;
76051;SDS011;64751;48.708;9.710;2023-05-14T17:42:39;0.10;;;0.10;;
76051;SDS011;64751;48.708;9.710;2023-05-14T17:45:07;0.10;;;0.10;;
76051;SDS011;64751;48.708;9.710;2023-05-14T17:47:35;0.20;;;0.20;;
76051;SDS011;64751;48.708;9.710;2023-05-14T17:50:03;0.00;;;0.00;;
76051;SDS011;64751;48.708;9.710;2023-05-14T17:52:31;0.00;;;0.00;;
76051;SDS011;64751;48.708;9.710;2023-05-14T17:54:59;0.10;;;0.10;;
76051;SDS011;64751;48.708;9.710;2023-05-14T17:57:26;0.10;;;0.10;;
76051;SDS011;64751;48.708;9.710;2023-05-14T17:59:55;0.00;;;0.00;;
76051;SDS011;64751;48.708;9.710;2023-05-14T18:02:23;0.05;;;0.05;;
76051;SDS011;64751;48.708;9.710;2023-05-14T18:04:50;0.10;;;0.10;;
76051;SDS011;64751;48.708;9.710;2023-05-14T18:07:18;0.10;;;0.10;;
76051;SDS011;64751;48.708;9.710;2023-05-14T18:09:47;0.10;;;0.10;;
76051;SDS011;64751;48.708;9.710;2023-05-14T18:12:15;0.00;;;0.00;;
76051;SDS011;64751;48.708;9.710;2023-05-14T18:14:42;0.10;;;0.10;;
76051;SDS011;64751;48.708;9.710;2023-05-14T18:17:12;0.00;;;0.00;;
76051;SDS011;64751;48.708;9.710;2023-05-14T18:19:40;0.00;;;0.00;;
76051;SDS011;64751;48.708;9.710;2023-05-14T18:22:08;0.10;;;0.10;;
76051;SDS011;64751;48.708;9.710;2023-05-14T18:24:36;0.10;;;0.10;;
76051;SDS011;64751;48.708;9.710;2023-05-14T18:27:03;0.10;;;0.10;;
76051;SDS011;64751;48.708;9.710;2023-05-14T18:29:32;0.10;;;0.10;;
76051;SDS011;64751;48.708;9.710;2023-05-14T18:31:59;0.15;;;0.15;;
76051;SDS011;64751;48.708;9.710;2023-05-14T18:34:28;0.10;;;0.10;;
76051;SDS011;64751;48.708;9.710;2023-05-14T18:36:56;0.13;;;0.13;;
76051;SDS011;64751;48.708;9.710;2023-05-14T18:39:24;0.00;;;0.00;;
76051;SDS011;64751;48.708;9.710;2023-05-14T18:41:52;0.10;;;0.10;;
76051;SDS011;64751;48.708;9.710;2023-05-14T18:44:21;0.00;;;0.00;;
76051;SDS011;64751;48.708;9.710;2023-05-14T18:46:49;0.10;;;0.10;;
76051;SDS011;64751;48.708;9.710;2023-05-14T18:49:17;0.10;;;0.10;;
76051;SDS011;64751;48.708;9.710;2023-05-14T18:51:46;0.05;;;0.05;;
76051;SDS011;64751;48.708;9.710;2023-05-14T18:54:13;0.10;;;0.10;;
76051;SDS011;64751;48.708;9.710;2023-05-14T18:56:41;0.00;;;0.00;;
76051;SDS011;64751;48.708;9.710;2023-05-14T18:59:14;0.10;;;0.10;;
76051;SDS011;64751;48.708;9.710;2023-05-14T19:01:42;0.17;;;0.17;;
76051;SDS011;64751;48.708;9.710;2023-05-14T19:04:10;0.10;;;0.10;;
76051;SDS011;64751;48.708;9.710;2023-05-14T19:06:37;0.03;;;0.03;;
76051;SDS011;64751;48.708;9.710;2023-05-14T19:09:06;0.00;;;0.00;;
76051;SDS011;64751;48.708;9.710;2023-05-14T19:11:35;0.00;;;0.00;;
76051;SDS011;64751;48.708;9.710;2023-05-14T19:14:03;0.08;;;0.08;;
76051;SDS011;64751;48.708;9.710;2023-05-14T19:16:30;0.00;;;0.00;;
76051;SDS011;64751;48.708;9.710;2023-05-14T19:18:58;0.00;;;0.00;;
76051;SDS011;64751;48.708;9.710;2023-05-14T19:21:26;0.20;;;0.20;;
76051;SDS011;64751;48.708;9.710;2023-05-14T19:23:53;0.20;;;0.20;;
76051;SDS011;64751;48.708;9.710;2023-05-14T19:26:22;0.10;;;0.10;;
76051;SDS011;64751;48.708;9.710;2023-05-14T19:28:50;0.10;;;0.10;;
76051;SDS011;64751;48.708;9.710;2023-05-14T19:31:23;0.17;;;0.17;;
76051;SDS011;64751;48.708;9.710;2023-05-14T19:33:51;0.10;;;0.10;;
76051;SDS011;64751;48.708;9.710;2023-05-14T19:36:19;0.00;;;0.00;;
76051;SDS011;64751;48.708;9.710;2023-05-14T19:38:47;0.20;;;0.20;;
76051;SDS011;64751;48.708;9.710;2023-05-14T19:41:15;0.10;;;0.10;;
76051;SDS011;64751;48.708;9.710;2023-05-14T19:43:44;0.10;;;0.10;;
76051;SDS011;64751;48.708;9.710;2023-05-14T19:46:11;0.10;;;0.10;;
76051;SDS011;64751;48.708;9.710;2023-05-14T19:48:39;0.10;;;0.10;;
76051;SDS011;64751;48.708;9.710;2023-05-14T19:51:06;0.08;;;0.08;;
76051;SDS011;64751;48.708;9.710;2023-05-14T19:53:34;0.10;;;0.10;;
76051;SDS011;64751;48.708;9.710;2023-05-14T19:56:01;0.00;;;0.00;;
76051;SDS011;64751;48.708;9.710;2023-05-14T19:58:29;0.20;;;0.20;;
76051;SDS011;64751;48.708;9.710;2023-05-14T20:00:58;0.00;;;0.00;;
76051;SDS011;64751;48.708;9.710;2023-05-14T20:03:26;0.08;;;0.08;;
76051;SDS011;64751;48.708;9.710;2023-05-14T20:05:54;0.10;;;0.10;;
76051;SDS011;64751;48.708;9.710;2023-05-14T20:08:23;0.00;;;0.00;;
76051;SDS011;64751;48.708;9.710;2023-05-14T20:10:51;0.10;;;0.10;;
76051;SDS011;64751;48.708;9.710;2023-05-14T20:13:19;0.08;;;0.08;;
76051;SDS011;64751;48.708;9.710;2023-05-14T20:15:47;0.08;;;0.08;;
76051;SDS011;64751;48.708;9.710;2023-05-14T20:18:16;0.10;;;0.10;;
76051;SDS011;64751;48.708;9.710;2023-05-14T20:20:44;0.10;;;0.10;;
76051;SDS011;64751;48.708;9.710;2023-05-14T20:23:11;0.22;;;0.22;;
76051;SDS011;64751;48.708;9.710;2023-05-14T20:25:39;0.10;;;0.10;;
76051;SDS011;64751;48.708;9.710;2023-05-14T20:28:07;0.00;;;0.00;;
76051;SDS011;64751;48.708;9.710;2023-05-14T20:30:35;0.10;;;0.10;;
76051;SDS011;64751;48.708;9.710;2023-05-14T20:33:03;0.10;;;0.10;;
76051;SDS011;64751;48.708;9.710;2023-05-14T20:35:32;0.00;;;0.00;;
76051;SDS011;64751;48.708;9.710;2023-05-14T20:38:01;0.13;;;0.13;;
76051;SDS011;64751;48.708;9.710;2023-05-14T20:40:29;0.10;;;0.10;;
76051;SDS011;64751;48.708;9.710;2023-05-14T20:42:57;0.10;;;0.10;;
76051;SDS011;64751;48.708;9.710;2023-05-14T20:45:26;0.10;;;0.10;;
76051;SDS011;64751;48.708;9.710;2023-05-14T20:47:54;0.10;;;0.10;;
76051;SDS011;64751;48.708;9.710;2023-05-14T20:50:22;0.30;;;0.30;;
76051;SDS011;64751;48.708;9.710;2023-05-14T20:52:53;0.20;;;0.10;;
76051;SDS011;64751;48.708;9.710;2023-05-14T20:55:22;0.10;;;0.10;;
76051;SDS011;64751;48.708;9.710;2023-05-14T20:57:49;0.03;;;0.03;;
76051;SDS011;64751;48.708;9.710;2023-05-14T21:00:17;0.10;;;0.10;;
76051;SDS011;64751;48.708;9.710;2023-05-14T21:02:45;0.10;;;0.10;;
76051;SDS011;64751;48.708;9.710;2023-05-14T21:05:15;0.10;;;0.10;;
76051;SDS011;64751;48.708;9.710;2023-05-14T21:07:43;0.10;;;0.10;;
76051;SDS011;64751;48.708;9.710;2023-05-14T21:10:12;0.10;;;0.10;;
76051;SDS011;64751;48.708;9.710;2023-05-14T21:12:39;0.10;;;0.10;;
76051;SDS011;64751;48.708;9.710;2023-05-14T21:15:07;0.28;;;0.20;;
76051;SDS011;64751;48.708;9.710;2023-05-14T21:17:36;0.08;;;0.08;;
76051;SDS011;64751;48.708;9.710;2023-05-14T21:20:04;96.95;;;45.47;;
76051;SDS011;64751;48.708;9.710;2023-05-14T21:22:32;105.53;;;49.85;;
76051;SDS011;64751;48.708;9.710;2023-05-14T21:25:00;170.80;;;74.63;;
76051;SDS011;64751;48.708;9.710;2023-05-14T21:27:29;189.75;;;75.43;;
76051;SDS011;64751;48.708;9.710;2023-05-14T21:29:56;0.80;;;0.80;;
76051;SDS011;64751;48.708;9.710;2023-05-14T21:32:24;6.13;;;3.00;;
76051;SDS011;64751;48.708;9.710;2023-05-14T21:34:51;0.25;;;0.25;;
76051;SDS011;64751;48.708;9.710;2023-05-14T21:37:19;0.20;;;0.20;;
76051;SDS011;64751;48.708;9.710;2023-05-14T21:39:47;0.10;;;0.10;;
76051;SDS011;64751;48.708;9.710;2023-05-14T21:42:15;0.20;;;0.20;;
76051;SDS011;64751;48.708;9.710;2023-05-14T21:44:45;0.15;;;0.15;;
76051;SDS011;64751;48.708;9.710;2023-05-14T21:47:12;0.10;;;0.10;;
76051;SDS011;64751;48.708;9.710;2023-05-14T21:49:40;0.10;;;0.10;;
76051;SDS011;64751;48.708;9.710;2023-05-14T21:52:08;0.00;;;0.00;;
76051;SDS011;64751;48.708;9.710;2023-05-14T21:54:36;0.03;;;0.03;;
76051;SDS011;64751;48.708;9.710;2023-05-14T21:57:03;0.05;;;0.05;;
76051;SDS011;64751;48.708;9.710;2023-05-14T21:59:32;0.10;;;0.10;;
